TimeEDT,TemperatureF,Dew PointF,Humidity,Sea Level PressureIn,VisibilityMPH,Wind Direction,Wind SpeedMPH,Gust SpeedMPH,PrecipitationIn,Events,Conditions,WindDirDegrees,DateUTC
12:15 AM,44.6,35.6,71,29.88,10.0,West,15.0,-,N/A,,Overcast,270,2013-10-27 04:15:00
12:35 AM,44.6,37.4,76,29.88,10.0,West,12.7,-,N/A,,Overcast,260,2013-10-27 04:35:00
12:55 AM,44.6,37.4,76,29.88,10.0,WSW,11.5,-,N/A,,Overcast,250,2013-10-27 04:55:00
1:15 AM,42.8,37.4,81,29.87,10.0,West,11.5,-,N/A,,Mostly Cloudy,260,2013-10-27 05:15:00
1:35 AM,42.8,37.4,81,29.87,10.0,SW,6.9,-,N/A,,Overcast,220,2013-10-27 05:35:00
1:55 AM,42.8,39.2,87,29.86,10.0,West,8.1,-,N/A,,Scattered Clouds,270,2013-10-27 05:55:00
2:15 AM,42.8,39.2,87,29.86,10.0,West,9.2,-,N/A,,Mostly Cloudy,260,2013-10-27 06:15:00
2:35 AM,42.8,39.2,87,29.86,10.0,West,10.4,-,N/A,,Overcast,260,2013-10-27 06:35:00
2:55 AM,42.8,39.2,87,29.85,10.0,West,8.1,-,N/A,,Overcast,260,2013-10-27 06:55:00
3:15 AM,42.8,39.2,87,29.84,10.0,West,8.1,-,N/A,,Overcast,280,2013-10-27 07:15:00
3:35 AM,42.8,39.2,87,29.84,10.0,WSW,5.8,-,N/A,,Overcast,250,2013-10-27 07:35:00
3:55 AM,42.8,39.2,87,29.83,10.0,West,4.6,-,N/A,,Overcast,260,2013-10-27 07:55:00
4:15 AM,42.8,39.2,87,29.82,10.0,West,4.6,-,0.02,,Overcast,260,2013-10-27 08:15:00
4:35 AM,42.8,39.2,87,29.82,10.0,Calm,Calm,-,0.03,,Overcast,0,2013-10-27 08:35:00
4:55 AM,42.8,39.2,87,29.82,10.0,Calm,Calm,-,0.04,,Overcast,0,2013-10-27 08:55:00
5:15 AM,42.8,39.2,87,29.82,10.0,Calm,Calm,-,N/A,,Overcast,0,2013-10-27 09:15:00
5:35 AM,42.8,39.2,87,29.82,10.0,SW,3.5,-,0.01,,Overcast,230,2013-10-27 09:35:00
5:55 AM,42.8,39.2,87,29.81,10.0,SSW,3.5,-,0.01,,Overcast,210,2013-10-27 09:55:00
6:15 AM,42.8,39.2,87,29.81,10.0,SW,4.6,-,N/A,,Overcast,220,2013-10-27 10:15:00
6:35 AM,42.8,39.2,87,29.81,10.0,SW,4.6,-,N/A,,Mostly Cloudy,220,2013-10-27 10:35:00
6:55 AM,42.8,39.2,87,29.81,10.0,SW,4.6,-,N/A,,Mostly Cloudy,220,2013-10-27 10:55:00
7:15 AM,42.8,39.2,87,29.81,10.0,SSW,4.6,-,N/A,,Overcast,210,2013-10-27 11:15:00
7:35 AM,42.8,39.2,87,29.82,10.0,SW,4.6,-,N/A,,Overcast,220,2013-10-27 11:35:00
7:55 AM,42.8,39.2,87,29.83,10.0,SW,5.8,-,0.01,,Overcast,220,2013-10-27 11:55:00
8:15 AM,42.8,39.2,87,29.83,10.0,SSW,4.6,-,N/A,,Overcast,200,2013-10-27 12:15:00
8:35 AM,44.6,41.0,87,29.83,10.0,SSW,3.5,-,N/A,,Mostly Cloudy,210,2013-10-27 12:35:00
8:55 AM,44.6,41.0,87,29.84,10.0,SW,6.9,-,N/A,,Mostly Cloudy,220,2013-10-27 12:55:00
9:15 AM,44.6,42.8,93,29.84,10.0,SW,6.9,-,N/A,,Mostly Cloudy,220,2013-10-27 13:15:00
9:35 AM,44.6,42.8,93,29.83,10.0,SSW,6.9,-,N/A,,Mostly Cloudy,210,2013-10-27 13:35:00
9:55 AM,44.6,42.8,93,29.82,10.0,SSW,5.8,-,N/A,,Mostly Cloudy,200,2013-10-27 13:55:00
10:15 AM,46.4,42.8,87,29.82,10.0,SSW,5.8,-,N/A,,Partly Cloudy,200,2013-10-27 14:15:00
10:35 AM,48.2,42.8,82,29.82,10.0,SSW,6.9,-,N/A,,Scattered Clouds,210,2013-10-27 14:35:00
10:55 AM,48.2,41.0,76,29.81,10.0,SW,10.4,17.3,N/A,,Mostly Cloudy,230,2013-10-27 14:55:00
11:15 AM,50.0,42.8,76,29.80,10.0,SW,10.4,-,N/A,,Mostly Cloudy,220,2013-10-27 15:15:00
11:35 AM,48.2,39.2,71,29.80,10.0,WSW,12.7,-,N/A,,Mostly Cloudy,240,2013-10-27 15:35:00
11:55 AM,51.8,37.4,58,29.81,10.0,West,11.5,17.3,N/A,,Mostly Cloudy,260,2013-10-27 15:55:00
12:15 PM,51.8,37.4,58,29.80,10.0,West,9.2,-,N/A,,Mostly Cloudy,260,2013-10-27 16:15:00
12:35 PM,51.8,35.6,54,29.79,10.0,West,12.7,-,N/A,,Clear,270,2013-10-27 16:35:00
12:55 PM,51.8,35.6,54,29.79,10.0,West,11.5,17.3,N/A,,Mostly Cloudy,260,2013-10-27 16:55:00
1:15 PM,51.8,37.4,58,29.78,10.0,WSW,10.4,-,N/A,,Partly Cloudy,240,2013-10-27 17:15:00
1:35 PM,51.8,35.6,54,29.78,10.0,WSW,10.4,-,N/A,,Clear,240,2013-10-27 17:35:00
1:55 PM,53.6,35.6,51,29.78,10.0,SSW,4.6,-,N/A,,Partly Cloudy,210,2013-10-27 17:55:00
2:15 PM,53.6,35.6,51,29.77,10.0,WSW,10.4,-,N/A,,Partly Cloudy,250,2013-10-27 18:15:00
2:35 PM,53.6,37.4,54,29.78,10.0,WSW,11.5,-,N/A,,Mostly Cloudy,250,2013-10-27 18:35:00
2:55 PM,53.6,33.8,47,29.78,10.0,WSW,8.1,-,N/A,,Mostly Cloudy,250,2013-10-27 18:55:00
3:15 PM,53.6,37.4,54,29.79,10.0,WSW,10.4,-,N/A,,Overcast,250,2013-10-27 19:15:00
3:35 PM,51.8,37.4,58,29.80,10.0,SW,6.9,-,N/A,,Mostly Cloudy,230,2013-10-27 19:35:00
3:55 PM,51.8,39.2,62,29.80,10.0,WSW,5.8,-,N/A,,Mostly Cloudy,240,2013-10-27 19:55:00
4:15 PM,51.8,39.2,62,29.80,10.0,WSW,3.5,-,N/A,,Overcast,240,2013-10-27 20:15:00
4:35 PM,51.8,39.2,62,29.80,10.0,Calm,Calm,-,N/A,,Overcast,0,2013-10-27 20:35:00
4:55 PM,51.8,37.4,58,29.81,10.0,West,10.4,-,N/A,,Overcast,260,2013-10-27 20:55:00
5:15 PM,50.0,37.4,62,29.82,10.0,West,5.8,-,N/A,,Mostly Cloudy,260,2013-10-27 21:15:00
5:35 PM,48.2,35.6,62,29.83,10.0,WSW,3.5,-,N/A,,Overcast,250,2013-10-27 21:35:00
5:55 PM,48.2,37.4,66,29.84,10.0,West,5.8,-,N/A,,Mostly Cloudy,260,2013-10-27 21:55:00
6:15 PM,48.2,35.6,62,29.85,10.0,West,11.5,-,N/A,,Partly Cloudy,270,2013-10-27 22:15:00
6:35 PM,48.2,32.0,54,29.86,10.0,WNW,10.4,19.6,N/A,,Scattered Clouds,290,2013-10-27 22:35:00
6:55 PM,48.2,30.2,50,29.88,10.0,WNW,8.1,18.4,N/A,,Mostly Cloudy,290,2013-10-27 22:55:00
7:15 PM,48.2,30.2,50,29.89,10.0,West,10.4,17.3,N/A,,Mostly Cloudy,280,2013-10-27 23:15:00
7:35 PM,46.4,30.2,53,29.90,10.0,West,11.5,16.1,N/A,,Mostly Cloudy,280,2013-10-27 23:35:00
7:55 PM,46.4,30.2,53,29.90,10.0,WNW,9.2,17.3,N/A,,Mostly Cloudy,290,2013-10-27 23:55:00
8:15 PM,46.4,28.4,50,29.91,10.0,WNW,9.2,17.3,N/A,,Mostly Cloudy,290,2013-10-28 00:15:00
8:35 PM,46.4,28.4,50,29.92,10.0,West,11.5,-,N/A,,Mostly Cloudy,280,2013-10-28 00:35:00
8:55 PM,44.6,28.4,53,29.93,10.0,West,9.2,-,N/A,,Partly Cloudy,280,2013-10-28 00:55:00
9:15 PM,44.6,28.4,53,29.94,10.0,West,10.4,-,N/A,,Clear,280,2013-10-28 01:15:00
9:35 PM,42.8,28.4,57,29.95,10.0,West,8.1,-,N/A,,Clear,280,2013-10-28 01:35:00
9:55 PM,42.8,28.4,57,29.96,10.0,West,8.1,-,N/A,,Clear,280,2013-10-28 01:55:00
10:15 PM,39.2,28.4,65,29.96,10.0,West,8.1,-,N/A,,Clear,280,2013-10-28 02:15:00
10:35 PM,39.2,28.4,65,29.96,10.0,West,5.8,-,N/A,,Clear,270,2013-10-28 02:35:00
10:55 PM,39.2,28.4,65,29.98,10.0,West,8.1,-,N/A,,Clear,270,2013-10-28 02:55:00
11:15 PM,39.2,28.4,65,29.98,10.0,West,9.2,-,N/A,,Clear,260,2013-10-28 03:15:00
11:35 PM,39.2,28.4,65,29.98,10.0,West,10.4,-,N/A,,Clear,260,2013-10-28 03:35:00
11:55 PM,39.2,28.4,65,29.99,10.0,West,12.7,-,N/A,,Clear,260,2013-10-28 03:55:00